Dodge, North Dakota
Current Conditions -  °F | °C
As of 2:35 AM on Thursday 27 Nov 2014 (Local Time) from KHZE Reporting Station
Overcast Overcast  
Wind Chill: -16°   Ceiling: 2200
Heat Index: -16°   Visibility: 10mi
Dew Point: -19°   Wind: 0mph
Humidity: 78%   Direction: NA
Pressure: 30.38"   Gusts: NA
Location:  47.31°N, 102.2°W
Report Text: KHZE 270935Z AUTO 00000KT 10SM OVC022 M16/M19 A3038 RMK AO2
Loading
Personal Weather Stations






























Interactive Weather Map New forecast layout! Learn more

10-Day Weather Forecast

Advertisements
Track Severe Weather on mobile